sensor_id;sensor_type;location;lat;lon;timestamp;P1;durP1;ratioP1;P2;durP2;ratioP2
74577;SDS011;63173;49.086;33.418;2022-12-07T01:28:40;8.35;;;3.33;;
74577;SDS011;63173;49.086;33.418;2022-12-07T01:31:07;10.02;;;3.72;;
74577;SDS011;63173;49.086;33.418;2022-12-07T01:33:37;10.13;;;4.13;;
74577;SDS011;63173;49.086;33.418;2022-12-07T01:36:04;15.27;;;5.22;;
74577;SDS011;63173;49.086;33.418;2022-12-07T01:38:31;13.98;;;4.63;;
74577;SDS011;63173;49.086;33.418;2022-12-07T01:40:58;14.30;;;4.82;;
74577;SDS011;63173;49.086;33.418;2022-12-07T01:43:25;15.23;;;4.88;;
74577;SDS011;63173;49.086;33.418;2022-12-07T01:45:53;11.82;;;4.45;;
74577;SDS011;63173;49.086;33.418;2022-12-07T01:48:20;16.88;;;4.72;;
74577;SDS011;63173;49.086;33.418;2022-12-07T01:50:50;14.25;;;4.53;;
74577;SDS011;63173;49.086;33.418;2022-12-07T01:53:18;13.02;;;4.53;;
74577;SDS011;63173;49.086;33.418;2022-12-07T01:55:45;13.02;;;5.35;;
74577;SDS011;63173;49.086;33.418;2022-12-07T01:58:14;21.60;;;4.88;;
74577;SDS011;63173;49.086;33.418;2022-12-07T02:00:41;18.90;;;6.30;;
74577;SDS011;63173;49.086;33.418;2022-12-07T02:03:09;12.85;;;4.22;;
74577;SDS011;63173;49.086;33.418;2022-12-07T02:05:40;15.55;;;5.18;;
74577;SDS011;63173;49.086;33.418;2022-12-07T02:08:07;14.13;;;5.50;;
74577;SDS011;63173;49.086;33.418;2022-12-07T02:10:32;19.98;;;5.45;;
74577;SDS011;63173;49.086;33.418;2022-12-07T02:18:52;13.73;;;4.70;;
74577;SDS011;63173;49.086;33.418;2022-12-07T02:21:34;17.23;;;5.60;;
74577;SDS011;63173;49.086;33.418;2022-12-07T02:24:19;16.58;;;5.45;;
74577;SDS011;63173;49.086;33.418;2022-12-07T02:30:03;14.48;;;5.03;;
74577;SDS011;63173;49.086;33.418;2022-12-07T02:35:04;11.83;;;4.33;;
74577;SDS011;63173;49.086;33.418;2022-12-07T02:40:40;14.13;;;5.00;;
74577;SDS011;63173;49.086;33.418;2022-12-07T02:43:13;15.60;;;4.90;;
74577;SDS011;63173;49.086;33.418;2022-12-07T02:45:45;15.13;;;4.30;;
74577;SDS011;63173;49.086;33.418;2022-12-07T02:48:13;15.70;;;5.03;;
74577;SDS011;63173;49.086;33.418;2022-12-07T02:56:21;15.63;;;5.72;;
74577;SDS011;63173;49.086;33.418;2022-12-07T03:15:22;16.27;;;4.75;;
74577;SDS011;63173;49.086;33.418;2022-12-07T03:18:11;14.27;;;4.28;;
74577;SDS011;63173;49.086;33.418;2022-12-07T03:20:40;14.65;;;4.22;;
74577;SDS011;63173;49.086;33.418;2022-12-07T03:23:09;15.30;;;4.35;;
74577;SDS011;63173;49.086;33.418;2022-12-07T03:25:44;21.10;;;5.60;;
74577;SDS011;63173;49.086;33.418;2022-12-07T03:28:14;14.13;;;4.65;;
74577;SDS011;63173;49.086;33.418;2022-12-07T03:30:44;17.98;;;5.05;;
74577;SDS011;63173;49.086;33.418;2022-12-07T03:33:21;14.65;;;4.72;;
74577;SDS011;63173;49.086;33.418;2022-12-07T03:35:53;15.13;;;4.20;;
74577;SDS011;63173;49.086;33.418;2022-12-07T03:38:32;13.23;;;4.40;;
74577;SDS011;63173;49.086;33.418;2022-12-07T03:41:06;12.35;;;4.13;;
74577;SDS011;63173;49.086;33.418;2022-12-07T03:43:33;18.25;;;5.20;;
74577;SDS011;63173;49.086;33.418;2022-12-07T03:48:36;11.70;;;4.20;;
74577;SDS011;63173;49.086;33.418;2022-12-07T03:51:20;20.75;;;5.15;;
74577;SDS011;63173;49.086;33.418;2022-12-07T03:56:41;13.85;;;4.53;;
74577;SDS011;63173;49.086;33.418;2022-12-07T03:59:07;16.20;;;5.10;;
74577;SDS011;63173;49.086;33.418;2022-12-07T04:01:34;14.88;;;5.22;;
74577;SDS011;63173;49.086;33.418;2022-12-07T04:03:59;15.40;;;4.60;;
74577;SDS011;63173;49.086;33.418;2022-12-07T04:06:25;20.42;;;6.45;;
74577;SDS011;63173;49.086;33.418;2022-12-07T04:08:50;11.63;;;4.80;;
74577;SDS011;63173;49.086;33.418;2022-12-07T04:11:16;16.15;;;4.95;;
74577;SDS011;63173;49.086;33.418;2022-12-07T04:13:41;15.75;;;4.75;;
74577;SDS011;63173;49.086;33.418;2022-12-07T04:16:25;12.77;;;4.15;;
74577;SDS011;63173;49.086;33.418;2022-12-07T04:18:50;18.45;;;5.15;;
74577;SDS011;63173;49.086;33.418;2022-12-07T04:21:16;13.75;;;4.70;;
74577;SDS011;63173;49.086;33.418;2022-12-07T04:23:41;13.73;;;4.60;;
74577;SDS011;63173;49.086;33.418;2022-12-07T04:26:07;14.40;;;4.85;;
74577;SDS011;63173;49.086;33.418;2022-12-07T04:28:32;16.63;;;4.45;;
74577;SDS011;63173;49.086;33.418;2022-12-07T04:30:58;20.35;;;4.30;;
74577;SDS011;63173;49.086;33.418;2022-12-07T04:33:23;13.60;;;4.47;;
74577;SDS011;63173;49.086;33.418;2022-12-07T04:35:49;13.02;;;4.22;;
74577;SDS011;63173;49.086;33.418;2022-12-07T04:38:14;9.70;;;3.67;;
74577;SDS011;63173;49.086;33.418;2022-12-07T04:40:39;11.98;;;4.38;;
74577;SDS011;63173;49.086;33.418;2022-12-07T04:43:05;10.52;;;3.83;;
74577;SDS011;63173;49.086;33.418;2022-12-07T04:45:30;13.32;;;4.00;;
74577;SDS011;63173;49.086;33.418;2022-12-07T04:47:56;12.63;;;3.95;;
74577;SDS011;63173;49.086;33.418;2022-12-07T04:50:21;8.32;;;3.90;;
74577;SDS011;63173;49.086;33.418;2022-12-07T04:52:47;10.63;;;3.75;;
74577;SDS011;63173;49.086;33.418;2022-12-07T04:55:12;15.88;;;4.32;;
74577;SDS011;63173;49.086;33.418;2022-12-07T04:57:38;10.50;;;3.97;;
74577;SDS011;63173;49.086;33.418;2022-12-07T05:00:03;11.52;;;4.57;;
74577;SDS011;63173;49.086;33.418;2022-12-07T05:02:29;19.30;;;4.95;;
74577;SDS011;63173;49.086;33.418;2022-12-07T05:04:54;12.30;;;4.13;;
74577;SDS011;63173;49.086;33.418;2022-12-07T05:07:20;11.77;;;4.20;;
74577;SDS011;63173;49.086;33.418;2022-12-07T05:09:45;11.73;;;4.70;;
74577;SDS011;63173;49.086;33.418;2022-12-07T05:12:11;19.75;;;5.05;;
74577;SDS011;63173;49.086;33.418;2022-12-07T05:14:36;18.35;;;5.00;;
74577;SDS011;63173;49.086;33.418;2022-12-07T05:17:02;15.30;;;4.75;;
74577;SDS011;63173;49.086;33.418;2022-12-07T05:19:27;10.23;;;4.35;;
74577;SDS011;63173;49.086;33.418;2022-12-07T05:21:52;12.55;;;4.80;;
74577;SDS011;63173;49.086;33.418;2022-12-07T05:24:18;15.98;;;5.18;;
74577;SDS011;63173;49.086;33.418;2022-12-07T05:26:44;26.60;;;5.75;;
74577;SDS011;63173;49.086;33.418;2022-12-07T05:29:14;15.55;;;4.45;;
74577;SDS011;63173;49.086;33.418;2022-12-07T05:31:41;10.35;;;4.00;;
74577;SDS011;63173;49.086;33.418;2022-12-07T05:34:07;9.98;;;3.65;;
74577;SDS011;63173;49.086;33.418;2022-12-07T05:36:32;11.05;;;4.35;;
74577;SDS011;63173;49.086;33.418;2022-12-07T05:38:58;12.77;;;4.60;;
74577;SDS011;63173;49.086;33.418;2022-12-07T05:41:24;11.68;;;4.20;;
74577;SDS011;63173;49.086;33.418;2022-12-07T05:44:07;14.95;;;3.53;;
74577;SDS011;63173;49.086;33.418;2022-12-07T05:46:33;13.02;;;4.03;;
74577;SDS011;63173;49.086;33.418;2022-12-07T05:48:59;10.98;;;3.40;;
74577;SDS011;63173;49.086;33.418;2022-12-07T05:51:25;10.50;;;3.97;;
74577;SDS011;63173;49.086;33.418;2022-12-07T05:53:51;12.18;;;4.35;;
74577;SDS011;63173;49.086;33.418;2022-12-07T05:56:16;12.02;;;4.30;;
74577;SDS011;63173;49.086;33.418;2022-12-07T05:58:42;13.63;;;4.15;;
74577;SDS011;63173;49.086;33.418;2022-12-07T06:01:26;11.07;;;4.25;;
74577;SDS011;63173;49.086;33.418;2022-12-07T06:03:51;13.65;;;3.88;;
74577;SDS011;63173;49.086;33.418;2022-12-07T10:13:53;10.02;;;4.18;;
74577;SDS011;63173;49.086;33.418;2022-12-07T10:18:51;9.70;;;4.10;;
74577;SDS011;63173;49.086;33.418;2022-12-07T10:21:17;13.38;;;4.57;;
74577;SDS011;63173;49.086;33.418;2022-12-07T10:24:01;12.23;;;4.40;;
74577;SDS011;63173;49.086;33.418;2022-12-07T10:26:29;10.23;;;4.60;;
74577;SDS011;63173;49.086;33.418;2022-12-07T10:31:54;16.20;;;4.60;;
74577;SDS011;63173;49.086;33.418;2022-12-07T10:34:27;20.10;;;5.20;;
74577;SDS011;63173;49.086;33.418;2022-12-07T10:37:06;14.93;;;6.03;;
74577;SDS011;63173;49.086;33.418;2022-12-07T10:39:42;15.15;;;5.60;;
74577;SDS011;63173;49.086;33.418;2022-12-07T10:42:22;12.80;;;5.47;;
74577;SDS011;63173;49.086;33.418;2022-12-07T10:53:26;18.25;;;5.28;;
74577;SDS011;63173;49.086;33.418;2022-12-07T11:21:27;18.88;;;5.53;;
74577;SDS011;63173;49.086;33.418;2022-12-07T11:24:18;18.10;;;6.50;;
74577;SDS011;63173;49.086;33.418;2022-12-07T11:37:45;21.98;;;5.45;;
74577;SDS011;63173;49.086;33.418;2022-12-07T11:42:39;17.45;;;6.88;;
74577;SDS011;63173;49.086;33.418;2022-12-07T11:45:19;19.05;;;5.70;;
74577;SDS011;63173;49.086;33.418;2022-12-07T11:47:58;20.27;;;6.07;;
74577;SDS011;63173;49.086;33.418;2022-12-07T11:50:37;15.75;;;6.13;;
74577;SDS011;63173;49.086;33.418;2022-12-07T11:58:34;18.25;;;7.22;;
74577;SDS011;63173;49.086;33.418;2022-12-07T12:03:57;19.33;;;7.10;;
74577;SDS011;63173;49.086;33.418;2022-12-07T16:12:43;35.65;;;14.20;;
74577;SDS011;63173;49.086;33.418;2022-12-07T16:15:09;29.90;;;9.93;;
74577;SDS011;63173;49.086;33.418;2022-12-07T16:17:34;31.30;;;12.45;;
74577;SDS011;63173;49.086;33.418;2022-12-07T16:20:00;28.35;;;11.25;;
74577;SDS011;63173;49.086;33.418;2022-12-07T16:22:25;27.92;;;10.63;;
74577;SDS011;63173;49.086;33.418;2022-12-07T16:24:51;26.52;;;10.40;;
74577;SDS011;63173;49.086;33.418;2022-12-07T16:27:16;25.90;;;9.30;;
74577;SDS011;63173;49.086;33.418;2022-12-07T16:29:42;26.02;;;9.57;;
74577;SDS011;63173;49.086;33.418;2022-12-07T16:32:07;27.15;;;11.68;;
74577;SDS011;63173;49.086;33.418;2022-12-07T16:34:33;31.25;;;10.57;;
74577;SDS011;63173;49.086;33.418;2022-12-07T16:36:58;35.30;;;12.27;;
74577;SDS011;63173;49.086;33.418;2022-12-07T16:39:24;32.28;;;9.85;;
74577;SDS011;63173;49.086;33.418;2022-12-07T16:41:49;28.80;;;9.15;;
74577;SDS011;63173;49.086;33.418;2022-12-07T16:44:15;30.92;;;10.57;;
74577;SDS011;63173;49.086;33.418;2022-12-07T16:46:41;30.92;;;12.23;;
74577;SDS011;63173;49.086;33.418;2022-12-07T16:49:10;36.75;;;11.55;;
74577;SDS011;63173;49.086;33.418;2022-12-07T16:51:37;31.45;;;11.15;;
74577;SDS011;63173;49.086;33.418;2022-12-07T16:54:03;28.95;;;11.02;;
74577;SDS011;63173;49.086;33.418;2022-12-07T16:56:29;30.70;;;11.10;;
74577;SDS011;63173;49.086;33.418;2022-12-07T16:58:54;26.88;;;9.95;;
74577;SDS011;63173;49.086;33.418;2022-12-07T17:01:22;29.35;;;11.57;;
74577;SDS011;63173;49.086;33.418;2022-12-07T17:03:48;31.23;;;10.95;;
74577;SDS011;63173;49.086;33.418;2022-12-07T17:06:16;31.85;;;11.52;;
74577;SDS011;63173;49.086;33.418;2022-12-07T17:08:47;32.88;;;10.98;;
74577;SDS011;63173;49.086;33.418;2022-12-07T17:11:17;32.88;;;11.10;;
74577;SDS011;63173;49.086;33.418;2022-12-07T17:13:45;32.10;;;11.40;;
74577;SDS011;63173;49.086;33.418;2022-12-07T17:16:29;33.50;;;11.60;;
74577;SDS011;63173;49.086;33.418;2022-12-07T17:18:55;29.17;;;10.80;;
74577;SDS011;63173;49.086;33.418;2022-12-07T17:21:21;32.22;;;10.85;;
74577;SDS011;63173;49.086;33.418;2022-12-07T17:23:47;34.60;;;10.95;;
74577;SDS011;63173;49.086;33.418;2022-12-07T17:26:14;29.10;;;11.05;;
74577;SDS011;63173;49.086;33.418;2022-12-07T17:28:45;28.40;;;10.60;;
74577;SDS011;63173;49.086;33.418;2022-12-07T17:31:11;31.63;;;11.43;;
74577;SDS011;63173;49.086;33.418;2022-12-07T17:33:38;32.05;;;10.98;;
74577;SDS011;63173;49.086;33.418;2022-12-07T17:36:17;28.98;;;10.85;;
74577;SDS011;63173;49.086;33.418;2022-12-07T17:38:43;28.63;;;10.32;;
74577;SDS011;63173;49.086;33.418;2022-12-07T17:41:11;32.35;;;13.45;;
74577;SDS011;63173;49.086;33.418;2022-12-07T17:43:58;28.70;;;10.38;;
74577;SDS011;63173;49.086;33.418;2022-12-07T17:46:24;28.65;;;11.30;;
74577;SDS011;63173;49.086;33.418;2022-12-07T17:48:49;32.50;;;10.48;;
74577;SDS011;63173;49.086;33.418;2022-12-07T17:51:15;32.55;;;11.40;;
74577;SDS011;63173;49.086;33.418;2022-12-07T17:53:59;29.00;;;10.50;;
74577;SDS011;63173;49.086;33.418;2022-12-07T17:56:25;40.60;;;13.48;;
74577;SDS011;63173;49.086;33.418;2022-12-07T17:58:50;31.80;;;11.80;;
74577;SDS011;63173;49.086;33.418;2022-12-07T18:01:15;35.70;;;11.57;;
74577;SDS011;63173;49.086;33.418;2022-12-07T18:03:41;38.92;;;14.60;;
74577;SDS011;63173;49.086;33.418;2022-12-07T18:06:06;39.45;;;13.77;;
74577;SDS011;63173;49.086;33.418;2022-12-07T18:08:33;37.38;;;13.10;;
74577;SDS011;63173;49.086;33.418;2022-12-07T22:36:51;41.88;;;13.88;;
74577;SDS011;63173;49.086;33.418;2022-12-07T22:39:17;50.70;;;15.68;;
74577;SDS011;63173;49.086;33.418;2022-12-07T22:41:42;50.55;;;15.98;;
74577;SDS011;63173;49.086;33.418;2022-12-07T22:44:08;42.10;;;14.45;;
74577;SDS011;63173;49.086;33.418;2022-12-07T22:46:34;41.67;;;14.25;;
74577;SDS011;63173;49.086;33.418;2022-12-07T22:48:59;42.13;;;14.40;;
74577;SDS011;63173;49.086;33.418;2022-12-07T22:51:26;43.10;;;15.55;;
74577;SDS011;63173;49.086;33.418;2022-12-07T22:53:54;44.67;;;16.17;;
74577;SDS011;63173;49.086;33.418;2022-12-07T22:56:23;42.13;;;14.68;;
74577;SDS011;63173;49.086;33.418;2022-12-07T22:58:49;46.33;;;14.70;;
74577;SDS011;63173;49.086;33.418;2022-12-07T23:01:16;46.67;;;15.60;;
74577;SDS011;63173;49.086;33.418;2022-12-07T23:03:43;45.10;;;14.20;;
74577;SDS011;63173;49.086;33.418;2022-12-07T23:06:12;39.78;;;14.25;;
74577;SDS011;63173;49.086;33.418;2022-12-07T23:08:39;41.35;;;14.68;;
74577;SDS011;63173;49.086;33.418;2022-12-07T23:11:09;46.03;;;15.43;;
74577;SDS011;63173;49.086;33.418;2022-12-07T23:13:57;49.47;;;15.38;;
74577;SDS011;63173;49.086;33.418;2022-12-07T23:16:23;44.80;;;15.55;;
74577;SDS011;63173;49.086;33.418;2022-12-07T23:18:49;40.85;;;14.20;;
74577;SDS011;63173;49.086;33.418;2022-12-07T23:21:14;43.55;;;14.65;;
74577;SDS011;63173;49.086;33.418;2022-12-07T23:23:40;45.58;;;13.68;;
74577;SDS011;63173;49.086;33.418;2022-12-07T23:26:06;38.90;;;12.90;;
74577;SDS011;63173;49.086;33.418;2022-12-07T23:28:33;42.85;;;15.07;;
74577;SDS011;63173;49.086;33.418;2022-12-07T23:31:21;47.47;;;14.40;;
74577;SDS011;63173;49.086;33.418;2022-12-07T23:33:46;42.38;;;14.27;;
74577;SDS011;63173;49.086;33.418;2022-12-07T23:36:12;41.20;;;14.73;;
74577;SDS011;63173;49.086;33.418;2022-12-07T23:38:42;46.35;;;14.80;;
74577;SDS011;63173;49.086;33.418;2022-12-07T23:41:10;41.70;;;14.18;;
74577;SDS011;63173;49.086;33.418;2022-12-07T23:43:38;46.72;;;15.45;;
74577;SDS011;63173;49.086;33.418;2022-12-07T23:46:07;41.90;;;13.90;;
74577;SDS011;63173;49.086;33.418;2022-12-07T23:48:38;44.22;;;12.65;;
74577;SDS011;63173;49.086;33.418;2022-12-07T23:51:04;43.75;;;14.68;;
74577;SDS011;63173;49.086;33.418;2022-12-07T23:53:31;35.33;;;12.75;;
74577;SDS011;63173;49.086;33.418;2022-12-07T23:56:01;36.85;;;12.35;;
74577;SDS011;63173;49.086;33.418;2022-12-07T23:58:28;36.28;;;13.05;;
